createdAt,value
2023-12-28T00:00:32.768Z,989.78
2023-12-28T00:01:32.760Z,989.90
2023-12-28T00:02:32.692Z,989.99
2023-12-28T00:03:32.817Z,990.01
2023-12-28T00:04:32.777Z,989.93
2023-12-28T00:05:32.677Z,989.95
2023-12-28T00:06:32.720Z,990.01
2023-12-28T00:07:32.711Z,990.09
2023-12-28T00:08:32.678Z,990.04
2023-12-28T00:09:32.723Z,990.06
2023-12-28T00:10:32.648Z,990.02
2023-12-28T00:11:32.636Z,990.05
2023-12-28T00:12:32.654Z,990.03
2023-12-28T00:13:32.616Z,990.04
2023-12-28T00:14:32.605Z,990.00
2023-12-28T00:15:32.649Z,990.01
2023-12-28T00:16:32.596Z,989.98
2023-12-28T00:17:32.625Z,990.08
2023-12-28T00:18:32.698Z,990.01
2023-12-28T00:19:32.676Z,989.99
2023-12-28T00:20:32.571Z,990.06
2023-12-28T00:21:32.603Z,990.09
2023-12-28T00:22:32.554Z,990.20
2023-12-28T00:23:32.576Z,990.12
2023-12-28T00:24:32.874Z,990.08
2023-12-28T00:25:32.538Z,990.11
2023-12-28T00:26:32.533Z,990.10
2023-12-28T00:27:33.967Z,990.12
2023-12-28T00:28:33.527Z,990.26
2023-12-28T00:29:32.545Z,990.11
2023-12-28T00:30:32.619Z,990.16
2023-12-28T00:31:32.570Z,990.17
2023-12-28T00:32:32.529Z,990.23
2023-12-28T00:33:32.583Z,990.18
2023-12-28T00:34:32.596Z,990.10
2023-12-28T00:35:32.477Z,990.18
2023-12-28T00:36:32.509Z,990.21
2023-12-28T00:37:32.470Z,990.18
2023-12-28T00:38:32.467Z,990.27
2023-12-28T00:39:32.468Z,990.28
2023-12-28T00:40:32.484Z,990.29
2023-12-28T00:41:32.434Z,990.35
2023-12-28T00:42:32.495Z,990.29
2023-12-28T00:43:32.440Z,990.34
2023-12-28T00:44:32.454Z,990.24
2023-12-28T00:45:32.508Z,990.24
2023-12-28T00:46:32.457Z,990.24
2023-12-28T00:47:32.510Z,990.15
2023-12-28T00:48:32.554Z,990.16
2023-12-28T00:49:32.668Z,990.22
2023-12-28T00:50:32.962Z,990.07
2023-12-28T00:51:32.508Z,990.14
2023-12-28T00:52:32.441Z,990.06
2023-12-28T00:53:32.426Z,990.14
2023-12-28T00:54:32.480Z,990.17
2023-12-28T00:55:32.602Z,990.08
2023-12-28T00:56:32.433Z,990.03
2023-12-28T00:57:32.538Z,990.15
2023-12-28T00:58:32.437Z,989.99
2023-12-28T00:59:32.377Z,990.01
2023-12-28T01:00:32.405Z,990.13
2023-12-28T01:01:32.413Z,990.14
2023-12-28T01:02:32.328Z,990.22
2023-12-28T01:03:32.467Z,990.31
2023-12-28T01:04:32.422Z,990.21
2023-12-28T01:05:32.384Z,990.25
2023-12-28T01:06:32.426Z,990.28
2023-12-28T01:07:32.832Z,990.35
2023-12-28T01:08:32.310Z,990.42
2023-12-28T01:09:32.379Z,990.41
2023-12-28T01:10:32.288Z,990.35
2023-12-28T01:11:32.589Z,990.38
2023-12-28T01:12:32.342Z,990.37
2023-12-28T01:13:32.527Z,990.42
2023-12-28T01:14:32.233Z,990.42
2023-12-28T01:15:32.296Z,990.38
2023-12-28T01:16:32.288Z,990.40
2023-12-28T01:17:32.468Z,990.33
2023-12-28T01:18:32.483Z,990.34
2023-12-28T01:19:32.424Z,990.41
2023-12-28T01:20:32.227Z,990.44
2023-12-28T01:21:32.374Z,990.62
2023-12-28T01:22:32.261Z,990.55
2023-12-28T01:23:32.350Z,990.65
2023-12-28T01:24:32.215Z,990.43
2023-12-28T01:25:32.422Z,990.51
2023-12-28T01:26:32.159Z,990.55
2023-12-28T01:27:32.378Z,990.60
2023-12-28T01:28:32.279Z,990.61
2023-12-28T01:29:32.152Z,990.91
2023-12-28T01:30:32.190Z,990.82
2023-12-28T01:31:32.345Z,990.72
2023-12-28T01:32:32.148Z,990.74
2023-12-28T01:33:32.225Z,990.63
2023-12-28T01:34:32.234Z,990.54
2023-12-28T01:35:32.132Z,990.51
2023-12-28T01:36:32.174Z,990.40
2023-12-28T01:37:32.115Z,990.42
2023-12-28T01:38:32.096Z,990.34
2023-12-28T01:39:32.121Z,990.41
2023-12-28T01:40:32.138Z,990.55
2023-12-28T01:41:32.072Z,990.53
2023-12-28T01:42:32.084Z,990.78
2023-12-28T01:43:32.058Z,990.64
2023-12-28T01:44:32.151Z,990.77
2023-12-28T01:45:32.106Z,990.82
2023-12-28T01:46:32.052Z,990.72
2023-12-28T01:47:32.068Z,990.76
2023-12-28T01:48:32.114Z,990.72
2023-12-28T01:49:32.104Z,990.77
2023-12-28T01:50:32.026Z,990.74
2023-12-28T01:51:33.023Z,990.97
2023-12-28T01:52:32.034Z,990.84
2023-12-28T01:53:32.014Z,990.70
2023-12-28T01:54:32.047Z,990.97
2023-12-28T01:55:31.984Z,990.75
2023-12-28T01:56:32.087Z,990.71
2023-12-28T01:57:32.012Z,990.82
2023-12-28T01:58:31.987Z,990.96
2023-12-28T01:59:31.954Z,990.94
2023-12-28T02:00:32.015Z,990.94
2023-12-28T02:01:31.967Z,990.89
2023-12-28T02:02:31.951Z,991.03
2023-12-28T02:03:31.993Z,990.97
2023-12-28T02:04:31.985Z,990.97
2023-12-28T02:05:32.525Z,990.88
2023-12-28T02:06:32.041Z,990.76
2023-12-28T02:07:31.920Z,990.68
2023-12-28T02:08:31.903Z,990.77
2023-12-28T02:09:31.944Z,990.57
2023-12-28T02:10:31.894Z,990.66
2023-12-28T02:11:31.888Z,990.54
2023-12-28T02:12:31.944Z,990.62
2023-12-28T02:13:31.878Z,990.66
2023-12-28T02:14:31.848Z,990.75
2023-12-28T02:15:31.916Z,990.68
2023-12-28T02:16:31.847Z,990.77
2023-12-28T02:17:31.883Z,990.92
2023-12-28T02:18:31.946Z,990.99
2023-12-28T02:19:31.834Z,990.91
2023-12-28T02:20:31.842Z,990.90
2023-12-28T02:21:31.893Z,990.93
2023-12-28T02:22:31.812Z,990.88
2023-12-28T02:23:31.822Z,990.92
2023-12-28T02:24:31.844Z,990.79
2023-12-28T02:25:31.794Z,990.82
2023-12-28T02:26:31.790Z,990.75
2023-12-28T02:27:31.806Z,990.87
2023-12-28T02:28:31.793Z,990.86
2023-12-28T02:29:31.772Z,990.79
2023-12-28T02:30:31.849Z,990.80
2023-12-28T02:31:32.017Z,990.88
2023-12-28T02:32:31.801Z,990.85
2023-12-28T02:33:31.827Z,990.82
2023-12-28T02:34:31.819Z,990.70
2023-12-28T02:35:31.761Z,990.88
2023-12-28T02:36:31.742Z,990.80
2023-12-28T02:37:31.722Z,990.86
2023-12-28T02:38:31.712Z,990.82
2023-12-28T02:39:31.812Z,990.97
2023-12-28T02:40:31.705Z,990.94
2023-12-28T02:41:31.707Z,990.92
2023-12-28T02:42:31.766Z,990.82
2023-12-28T02:43:31.686Z,990.75
2023-12-28T02:44:31.706Z,990.80
2023-12-28T02:45:31.732Z,990.94
2023-12-28T02:46:31.660Z,990.88
2023-12-28T02:47:31.657Z,990.86
2023-12-28T02:48:31.789Z,990.82
2023-12-28T02:49:31.714Z,990.90
2023-12-28T02:50:31.649Z,990.80
2023-12-28T02:51:31.694Z,990.86
2023-12-28T02:52:31.615Z,990.92
2023-12-28T02:53:31.624Z,990.92
2023-12-28T02:54:31.642Z,990.98
2023-12-28T02:55:31.675Z,991.03
2023-12-28T02:56:31.606Z,990.99
2023-12-28T02:57:31.606Z,990.92
2023-12-28T02:58:31.585Z,990.89
2023-12-28T02:59:31.584Z,990.92
2023-12-28T03:00:31.668Z,990.93
2023-12-28T03:01:31.626Z,990.98
2023-12-28T03:02:31.602Z,990.93
2023-12-28T03:03:31.721Z,990.91
2023-12-28T03:04:31.535Z,990.84
2023-12-28T03:05:31.572Z,990.88
2023-12-28T03:06:31.559Z,990.86
2023-12-28T03:07:31.522Z,991.03
2023-12-28T03:08:31.516Z,990.89
2023-12-28T03:09:31.525Z,990.81
2023-12-28T03:10:31.511Z,990.79
2023-12-28T03:11:31.517Z,990.79
2023-12-28T03:12:31.537Z,990.89
2023-12-28T03:13:31.465Z,990.95
2023-12-28T03:14:31.497Z,990.83
2023-12-28T03:15:31.491Z,990.87
2023-12-28T03:16:33.713Z,990.91
2023-12-28T03:17:31.472Z,990.78
2023-12-28T03:18:31.612Z,990.80
2023-12-28T03:19:31.578Z,990.80
2023-12-28T03:20:31.451Z,990.80
2023-12-28T03:21:31.470Z,990.80
2023-12-28T03:22:31.440Z,990.81
2023-12-28T03:23:31.429Z,990.83
2023-12-28T03:24:31.428Z,990.85
2023-12-28T03:25:31.406Z,990.88
2023-12-28T03:26:31.410Z,990.87
2023-12-28T03:27:31.714Z,990.77
2023-12-28T03:28:31.397Z,990.72
2023-12-28T03:29:31.381Z,990.68
2023-12-28T03:30:31.439Z,990.78
2023-12-28T03:31:31.443Z,990.96
2023-12-28T03:32:31.395Z,991.05
2023-12-28T03:33:31.422Z,991.09
2023-12-28T03:34:31.515Z,990.92
2023-12-28T03:35:31.346Z,990.76
2023-12-28T03:36:31.391Z,990.80
2023-12-28T03:37:31.432Z,991.02
2023-12-28T03:38:31.330Z,990.98
2023-12-28T03:39:31.330Z,990.98
2023-12-28T03:40:31.308Z,990.96
2023-12-28T03:41:31.304Z,990.84
2023-12-28T03:42:31.358Z,990.91
2023-12-28T03:43:31.286Z,990.89
2023-12-28T03:44:31.291Z,990.86
2023-12-28T03:45:31.312Z,990.93
2023-12-28T03:46:31.272Z,990.97
2023-12-28T03:47:31.472Z,990.97
2023-12-28T03:48:31.444Z,991.03
2023-12-28T03:49:31.310Z,990.97
2023-12-28T03:50:31.240Z,990.92
2023-12-28T03:51:31.298Z,990.81
2023-12-28T03:52:31.521Z,990.84
2023-12-28T03:53:31.269Z,990.88
2023-12-28T03:54:32.022Z,990.88
2023-12-28T03:55:31.953Z,990.93
2023-12-28T03:56:31.236Z,991.03
2023-12-28T03:57:31.222Z,990.98
2023-12-28T03:58:31.200Z,991.08
2023-12-28T03:59:31.205Z,991.02
2023-12-28T04:00:31.183Z,991.08
2023-12-28T04:01:31.202Z,991.12
2023-12-28T04:02:31.171Z,991.15
2023-12-28T04:03:31.355Z,991.10
2023-12-28T04:04:31.293Z,991.11
2023-12-28T04:05:31.154Z,991.30
2023-12-28T04:06:31.175Z,991.12
2023-12-28T04:07:31.133Z,991.08
2023-12-28T04:08:31.290Z,991.20
2023-12-28T04:09:31.159Z,991.15
2023-12-28T04:10:31.122Z,991.02
2023-12-28T04:11:31.103Z,991.11
2023-12-28T04:12:31.135Z,991.08
2023-12-28T04:13:31.096Z,991.12
2023-12-28T04:14:31.109Z,991.09
2023-12-28T04:15:31.250Z,991.20
2023-12-28T04:16:31.098Z,990.98
2023-12-28T04:17:31.099Z,991.07
2023-12-28T04:18:31.273Z,991.06
2023-12-28T04:19:31.124Z,990.92
2023-12-28T04:20:31.088Z,991.05
2023-12-28T04:21:31.083Z,990.95
2023-12-28T04:22:31.062Z,991.04
2023-12-28T04:23:31.032Z,991.07
2023-12-28T04:24:31.050Z,991.23
2023-12-28T04:25:31.024Z,991.10
2023-12-28T04:26:31.025Z,991.17
2023-12-28T04:27:31.046Z,991.23
2023-12-28T04:28:31.004Z,991.11
2023-12-28T04:29:30.984Z,991.12
2023-12-28T04:30:31.102Z,991.14
2023-12-28T04:31:31.057Z,991.33
2023-12-28T04:32:30.983Z,991.11
2023-12-28T04:33:30.966Z,991.23
2023-12-28T04:34:30.984Z,991.11
2023-12-28T04:35:30.986Z,991.11
2023-12-28T04:36:30.995Z,991.14
2023-12-28T04:37:30.934Z,991.02
2023-12-28T04:38:30.925Z,991.21
2023-12-28T04:39:30.952Z,991.11
2023-12-28T04:40:30.929Z,990.99
2023-12-28T04:41:30.914Z,991.04
2023-12-28T04:42:30.967Z,991.00
2023-12-28T04:43:30.893Z,991.01
2023-12-28T04:44:30.896Z,991.01
2023-12-28T04:45:30.934Z,990.98
2023-12-28T04:46:30.881Z,991.01
2023-12-28T04:47:30.893Z,991.28
2023-12-28T04:48:30.996Z,991.10
2023-12-28T04:49:30.915Z,991.07
2023-12-28T04:50:30.850Z,991.02
2023-12-28T04:51:30.897Z,991.00
2023-12-28T04:52:30.838Z,991.09
2023-12-28T04:53:30.844Z,990.96
2023-12-28T04:54:30.840Z,991.17
2023-12-28T04:55:30.833Z,991.24
2023-12-28T04:56:30.821Z,990.90
2023-12-28T04:57:30.819Z,991.04
2023-12-28T04:58:30.813Z,990.85
2023-12-28T04:59:30.784Z,991.02
2023-12-28T05:00:30.921Z,991.01
2023-12-28T05:01:30.867Z,990.98
2023-12-28T05:02:30.891Z,991.16
2023-12-28T05:03:30.862Z,990.97
2023-12-28T05:04:30.809Z,991.10
2023-12-28T05:05:30.808Z,990.92
2023-12-28T05:06:31.002Z,990.89
2023-12-28T05:07:30.749Z,990.99
2023-12-28T05:08:30.729Z,991.19
2023-12-28T05:09:30.880Z,990.83
2023-12-28T05:10:30.718Z,990.84
2023-12-28T05:11:30.715Z,991.18
2023-12-28T05:12:42.731Z,991.18
2023-12-28T05:13:32.779Z,990.87
2023-12-28T05:14:30.708Z,991.10
2023-12-28T05:15:30.914Z,991.15
2023-12-28T05:16:30.687Z,991.00
2023-12-28T05:17:30.711Z,990.94
2023-12-28T05:18:30.895Z,991.08
2023-12-28T05:19:30.887Z,990.97
2023-12-28T05:20:30.699Z,990.88
2023-12-28T05:21:30.735Z,990.88
2023-12-28T05:22:30.648Z,991.15
2023-12-28T05:23:30.640Z,990.87
2023-12-28T05:24:30.803Z,991.13
2023-12-28T05:25:30.648Z,991.29
2023-12-28T05:26:30.667Z,990.96
2023-12-28T05:27:30.718Z,990.98
2023-12-28T05:28:30.651Z,990.99
2023-12-28T05:29:30.750Z,990.92
2023-12-28T05:30:30.777Z,990.98
2023-12-28T05:31:30.758Z,991.05
2023-12-28T05:32:30.700Z,990.94
2023-12-28T05:33:30.742Z,991.02
2023-12-28T05:34:30.781Z,991.17
2023-12-28T05:35:30.577Z,991.02
2023-12-28T05:36:30.583Z,990.94
2023-12-28T05:37:30.564Z,990.92
2023-12-28T05:38:30.548Z,991.14
2023-12-28T05:39:30.578Z,991.02
2023-12-28T05:40:30.540Z,991.01
2023-12-28T05:41:30.551Z,991.12
2023-12-28T05:42:30.553Z,991.00
2023-12-28T05:43:30.528Z,991.06
2023-12-28T05:44:31.649Z,991.05
2023-12-28T05:45:30.524Z,990.98
2023-12-28T05:46:30.498Z,991.06
2023-12-28T05:47:30.525Z,991.14
2023-12-28T05:48:30.628Z,991.22
2023-12-28T05:49:31.584Z,991.16
2023-12-28T05:50:30.482Z,991.12
2023-12-28T05:51:30.490Z,991.16
2023-12-28T05:52:30.517Z,991.21
2023-12-28T05:53:30.449Z,991.41
2023-12-28T05:54:30.489Z,991.12
2023-12-28T05:55:30.451Z,991.18
2023-12-28T05:56:30.436Z,991.11
2023-12-28T05:57:30.464Z,991.03
2023-12-28T05:58:30.434Z,991.15
2023-12-28T05:59:30.434Z,991.12
2023-12-28T06:00:30.456Z,991.28
2023-12-28T06:01:30.453Z,991.14
2023-12-28T06:02:30.410Z,991.16
2023-12-28T06:03:30.511Z,991.22
2023-12-28T06:04:30.550Z,991.14
2023-12-28T06:05:30.414Z,991.38
2023-12-28T06:06:30.424Z,991.31
2023-12-28T06:07:30.381Z,991.43
2023-12-28T06:08:30.359Z,991.13
2023-12-28T06:09:30.387Z,991.24
2023-12-28T06:10:30.342Z,991.23
2023-12-28T06:11:30.348Z,991.17
2023-12-28T06:12:30.357Z,991.17
2023-12-28T06:13:30.334Z,991.36
2023-12-28T06:14:30.423Z,991.26
2023-12-28T06:15:30.366Z,991.28
2023-12-28T06:16:30.408Z,991.29
2023-12-28T06:17:32.202Z,991.59
2023-12-28T06:18:30.390Z,991.30
2023-12-28T06:19:30.361Z,991.28
2023-12-28T06:20:30.287Z,991.24
2023-12-28T06:21:30.314Z,991.34
2023-12-28T06:22:30.284Z,991.36
2023-12-28T06:23:30.283Z,991.17
2023-12-28T06:24:30.321Z,991.48
2023-12-28T06:25:30.304Z,991.30
2023-12-28T06:26:30.237Z,991.36
2023-12-28T06:27:31.368Z,991.32
2023-12-28T06:28:30.236Z,991.33
2023-12-28T06:29:30.243Z,991.54
2023-12-28T06:30:30.274Z,991.48
2023-12-28T06:31:30.301Z,991.38
2023-12-28T06:32:31.512Z,991.31
2023-12-28T06:33:31.340Z,991.35
2023-12-28T06:34:30.354Z,991.46
2023-12-28T06:35:30.196Z,991.33
2023-12-28T06:36:30.214Z,991.42
2023-12-28T06:37:30.206Z,991.29
2023-12-28T06:38:30.175Z,991.52
2023-12-28T06:39:30.191Z,991.31
2023-12-28T06:40:30.162Z,991.35
2023-12-28T06:41:30.192Z,991.46
2023-12-28T06:42:30.179Z,991.32
2023-12-28T06:43:30.156Z,991.37
2023-12-28T06:44:30.136Z,991.42
2023-12-28T06:45:30.146Z,991.33
2023-12-28T06:46:30.152Z,991.43
2023-12-28T06:47:30.174Z,991.44
2023-12-28T06:48:30.316Z,991.37
2023-12-28T06:49:30.193Z,991.34
2023-12-28T06:50:31.086Z,991.32
2023-12-28T06:51:30.097Z,991.24
2023-12-28T06:52:30.075Z,991.34
2023-12-28T06:53:30.099Z,991.21
2023-12-28T06:54:30.079Z,991.35
2023-12-28T06:55:30.052Z,991.34
2023-12-28T06:56:30.044Z,991.29
2023-12-28T06:57:30.078Z,991.29
2023-12-28T06:58:30.132Z,991.31
2023-12-28T06:59:30.036Z,991.27
2023-12-28T07:00:30.073Z,991.25
2023-12-28T07:01:30.154Z,991.36
2023-12-28T07:02:30.006Z,991.40
2023-12-28T07:03:30.063Z,991.34
2023-12-28T07:04:30.032Z,991.40
2023-12-28T07:05:30.140Z,991.44
2023-12-28T07:06:30.065Z,991.44
2023-12-28T07:07:30.006Z,991.50
2023-12-28T07:08:31.432Z,991.46
2023-12-28T07:09:29.980Z,991.57
2023-12-28T07:10:29.961Z,991.43
2023-12-28T07:11:29.949Z,991.55
2023-12-28T07:12:29.966Z,991.69
2023-12-28T07:13:29.945Z,991.57
2023-12-28T07:14:30.255Z,991.48
2023-12-28T07:15:29.939Z,991.58
2023-12-28T07:16:29.905Z,991.56
2023-12-28T07:17:29.937Z,991.61
2023-12-28T07:18:30.336Z,991.57
2023-12-28T07:19:29.980Z,991.55
2023-12-28T07:20:29.916Z,991.50
2023-12-28T07:21:29.913Z,991.57
2023-12-28T07:22:29.887Z,991.51
2023-12-28T07:23:29.852Z,991.60
2023-12-28T07:24:29.979Z,991.47
2023-12-28T07:25:29.870Z,991.60
2023-12-28T07:26:29.869Z,991.53
2023-12-28T07:27:29.887Z,991.50
2023-12-28T07:28:29.815Z,991.51
2023-12-28T07:29:29.817Z,991.53
2023-12-28T07:30:29.837Z,991.55
2023-12-28T07:31:29.896Z,991.68
2023-12-28T07:32:29.850Z,991.74
2023-12-28T07:33:29.943Z,991.52
2023-12-28T07:34:29.879Z,991.75
2023-12-28T07:35:29.782Z,991.72
2023-12-28T07:36:30.787Z,991.71
2023-12-28T07:37:29.880Z,991.84
2023-12-28T07:38:29.766Z,991.73
2023-12-28T07:39:29.818Z,991.77
2023-12-28T07:40:29.771Z,991.74
2023-12-28T07:41:29.741Z,991.70
2023-12-28T07:42:29.836Z,991.82
2023-12-28T07:43:29.726Z,991.73
2023-12-28T07:44:29.708Z,991.78
2023-12-28T07:45:29.799Z,991.83
2023-12-28T07:46:29.721Z,991.78
2023-12-28T07:47:29.720Z,991.82
2023-12-28T07:48:29.774Z,991.95
2023-12-28T07:49:29.709Z,991.85
2023-12-28T07:50:30.439Z,992.04
2023-12-28T07:51:29.698Z,991.90
2023-12-28T07:52:29.667Z,991.70
2023-12-28T07:53:29.710Z,991.80
2023-12-28T07:54:29.693Z,991.74
2023-12-28T07:55:29.673Z,991.69
2023-12-28T07:56:29.647Z,991.88
2023-12-28T07:57:29.675Z,991.74
2023-12-28T07:58:29.727Z,991.67
2023-12-28T07:59:29.623Z,991.67
2023-12-28T08:00:29.635Z,991.73
2023-12-28T08:01:29.673Z,991.81
2023-12-28T08:02:29.596Z,991.72
2023-12-28T08:03:29.646Z,991.76
2023-12-28T08:04:29.717Z,991.77
2023-12-28T08:05:29.619Z,991.73
2023-12-28T08:06:29.606Z,991.78
2023-12-28T08:07:29.586Z,992.11
2023-12-28T08:08:29.566Z,991.68
2023-12-28T08:09:29.617Z,991.77
2023-12-28T08:10:29.567Z,991.61
2023-12-28T08:11:29.551Z,991.69
2023-12-28T08:12:29.733Z,991.74
2023-12-28T08:13:29.531Z,991.67
2023-12-28T08:14:29.526Z,991.53
2023-12-28T08:15:29.567Z,991.67
2023-12-28T08:16:29.511Z,991.73
2023-12-28T08:17:29.551Z,991.68
2023-12-28T08:18:29.584Z,991.67
2023-12-28T08:19:29.575Z,991.71
2023-12-28T08:20:29.524Z,991.76
2023-12-28T08:21:29.531Z,991.65
2023-12-28T08:22:29.483Z,991.71
2023-12-28T08:23:29.467Z,991.72
2023-12-28T08:24:29.511Z,991.80
2023-12-28T08:25:29.473Z,991.71
2023-12-28T08:26:29.613Z,991.71
2023-12-28T08:27:29.505Z,991.76
2023-12-28T08:28:29.445Z,991.97
2023-12-28T08:29:29.480Z,992.10
2023-12-28T08:30:29.479Z,992.02
2023-12-28T08:31:29.605Z,991.80
2023-12-28T08:32:29.517Z,991.89
2023-12-28T08:33:29.569Z,991.75
2023-12-28T08:34:29.577Z,991.89
2023-12-28T08:35:29.416Z,991.75
2023-12-28T08:36:29.720Z,992.01
2023-12-28T08:37:29.380Z,991.76
2023-12-28T08:38:29.377Z,991.98
2023-12-28T08:39:29.396Z,992.14
2023-12-28T08:40:29.368Z,991.86
2023-12-28T08:41:29.358Z,992.04
2023-12-28T08:42:29.392Z,992.06
2023-12-28T08:43:29.368Z,991.97
2023-12-28T08:44:29.331Z,992.08
2023-12-28T08:45:29.950Z,992.19
2023-12-28T08:46:29.317Z,991.87
2023-12-28T08:47:29.360Z,991.94
2023-12-28T08:48:29.426Z,992.27
2023-12-28T08:49:29.327Z,991.92
2023-12-28T08:50:29.310Z,992.08
2023-12-28T08:51:29.320Z,991.99
2023-12-28T08:52:29.288Z,991.99
2023-12-28T08:53:29.286Z,991.98
2023-12-28T08:54:29.300Z,992.06
2023-12-28T08:55:29.315Z,992.02
2023-12-28T08:56:29.256Z,992.23
2023-12-28T08:57:36.199Z,992.03
2023-12-28T08:58:30.293Z,991.96
2023-12-28T08:59:29.260Z,992.02
2023-12-28T09:00:29.330Z,991.91
2023-12-28T09:01:29.293Z,991.94
2023-12-28T09:02:29.206Z,991.96
2023-12-28T09:03:29.276Z,991.91
2023-12-28T09:04:29.236Z,992.03
2023-12-28T09:05:29.235Z,991.87
2023-12-28T09:06:29.273Z,992.14
2023-12-28T09:07:29.180Z,991.91
2023-12-28T09:08:29.171Z,991.83
2023-12-28T09:09:29.215Z,991.91
2023-12-28T09:10:29.159Z,991.97
2023-12-28T09:11:29.163Z,991.96
2023-12-28T09:12:29.178Z,992.00
2023-12-28T09:13:29.222Z,992.11
2023-12-28T09:14:29.181Z,992.15
2023-12-28T09:15:29.208Z,992.20
2023-12-28T09:16:29.114Z,992.01
2023-12-28T09:17:29.134Z,992.18
2023-12-28T09:18:29.174Z,992.37
2023-12-28T09:19:29.170Z,992.47
2023-12-28T09:20:29.109Z,992.20
2023-12-28T09:21:29.213Z,992.22
2023-12-28T09:22:31.513Z,992.16
2023-12-28T09:23:29.057Z,992.27
2023-12-28T09:24:29.099Z,992.15
2023-12-28T09:25:29.034Z,992.19
2023-12-28T09:26:29.028Z,992.06
2023-12-28T09:27:29.062Z,992.22
2023-12-28T09:28:29.008Z,992.15
2023-12-28T09:29:29.017Z,992.23
2023-12-28T09:30:30.054Z,992.26
2023-12-28T09:31:29.023Z,992.27
2023-12-28T09:32:29.027Z,992.03
2023-12-28T09:33:29.030Z,992.11
2023-12-28T09:34:29.047Z,992.26
2023-12-28T09:35:29.031Z,992.36
2023-12-28T09:36:29.020Z,992.34
2023-12-28T09:37:28.988Z,992.16
2023-12-28T09:38:28.956Z,992.22
2023-12-28T09:39:29.007Z,992.29
2023-12-28T09:40:29.032Z,992.42
2023-12-28T09:41:29.931Z,992.28
2023-12-28T09:42:28.931Z,992.84
2023-12-28T09:43:28.924Z,992.34
2023-12-28T09:44:28.909Z,992.46
2023-12-28T09:45:28.942Z,992.41
2023-12-28T09:46:28.900Z,992.30
2023-12-28T09:47:28.998Z,992.30
2023-12-28T09:48:29.016Z,992.37
2023-12-28T09:49:28.923Z,992.32
2023-12-28T09:50:28.886Z,992.22
2023-12-28T09:51:28.886Z,992.67
2023-12-28T09:52:28.854Z,992.52
2023-12-28T09:53:28.885Z,992.35
2023-12-28T09:54:28.864Z,992.77
2023-12-28T09:55:28.825Z,992.65
2023-12-28T09:56:30.849Z,992.69
2023-12-28T09:57:29.986Z,992.17
2023-12-28T09:58:28.820Z,992.22
2023-12-28T09:59:28.824Z,992.53
2023-12-28T10:00:28.883Z,992.38
2023-12-28T10:01:28.895Z,992.18
2023-12-28T10:02:28.802Z,992.08
2023-12-28T10:03:28.868Z,992.16
2023-12-28T10:04:29.872Z,992.32
2023-12-28T10:05:28.800Z,992.25
2023-12-28T10:06:28.808Z,992.08
2023-12-28T10:07:28.769Z,991.97
2023-12-28T10:08:28.769Z,992.22
2023-12-28T10:09:28.770Z,991.96
2023-12-28T10:10:28.794Z,992.15
2023-12-28T10:11:28.801Z,992.03
2023-12-28T10:12:28.795Z,992.44
2023-12-28T10:13:28.748Z,992.44
2023-12-28T10:14:28.722Z,992.42
2023-12-28T10:15:28.744Z,992.35
2023-12-28T10:16:28.758Z,992.02
2023-12-28T10:17:28.742Z,992.42
2023-12-28T10:18:28.843Z,992.13
2023-12-28T10:19:28.749Z,992.18
2023-12-28T10:20:28.689Z,992.29
2023-12-28T10:21:28.691Z,992.19
2023-12-28T10:22:28.677Z,991.83
2023-12-28T10:23:28.687Z,992.20
2023-12-28T10:24:28.704Z,992.06
2023-12-28T10:25:28.655Z,992.31
2023-12-28T10:26:28.634Z,991.85
2023-12-28T10:27:28.680Z,992.12
2023-12-28T10:28:29.671Z,992.18
2023-12-28T10:29:28.634Z,991.96
2023-12-28T10:30:28.704Z,991.69
2023-12-28T10:31:28.760Z,991.91
2023-12-28T10:32:28.705Z,991.65
2023-12-28T10:33:28.715Z,992.15
2023-12-28T10:34:28.677Z,991.70
2023-12-28T10:35:28.600Z,991.86
2023-12-28T10:36:28.644Z,991.78
2023-12-28T10:37:28.567Z,991.61
2023-12-28T10:38:28.563Z,991.67
2023-12-28T10:39:28.638Z,991.73
2023-12-28T10:40:28.637Z,991.58
2023-12-28T10:41:28.545Z,991.73
2023-12-28T10:42:28.574Z,991.65
2023-12-28T10:43:28.530Z,991.62
2023-12-28T10:44:28.669Z,991.66
2023-12-28T10:45:28.559Z,991.69
2023-12-28T10:46:28.523Z,991.45
2023-12-28T10:47:28.525Z,991.59
2023-12-28T10:48:28.604Z,991.49
2023-12-28T10:49:28.669Z,991.75
2023-12-28T10:50:28.516Z,991.82
2023-12-28T10:51:28.562Z,991.37
2023-12-28T10:52:28.480Z,991.63
2023-12-28T10:53:28.465Z,991.69
2023-12-28T10:54:28.518Z,991.60
2023-12-28T10:55:28.520Z,991.39
2023-12-28T10:56:28.451Z,991.44
2023-12-28T10:57:28.856Z,991.57
2023-12-28T10:58:28.468Z,991.78
2023-12-28T10:59:28.545Z,991.60
2023-12-28T11:00:28.484Z,991.39
2023-12-28T11:01:28.543Z,991.66
2023-12-28T11:02:28.429Z,991.52
2023-12-28T11:03:28.503Z,991.37
2023-12-28T11:04:29.399Z,991.59
2023-12-28T11:05:28.432Z,991.74
2023-12-28T11:06:28.449Z,991.35
2023-12-28T11:07:28.370Z,991.24
2023-12-28T11:08:28.363Z,991.20
2023-12-28T11:09:28.375Z,991.37
2023-12-28T11:10:28.356Z,991.28
2023-12-28T11:11:28.359Z,991.95
2023-12-28T11:12:28.400Z,991.42
2023-12-28T11:13:28.325Z,991.15
2023-12-28T11:14:28.320Z,991.14
2023-12-28T11:15:28.325Z,991.25
2023-12-28T11:16:28.315Z,991.22
2023-12-28T11:17:28.388Z,991.28
2023-12-28T11:18:28.397Z,991.18
2023-12-28T11:19:28.352Z,991.25
2023-12-28T11:20:28.293Z,991.12
2023-12-28T11:21:28.318Z,991.02
2023-12-28T11:22:28.281Z,991.08
2023-12-28T11:23:28.286Z,990.95
2023-12-28T11:24:28.283Z,991.21
2023-12-28T11:25:28.261Z,991.07
2023-12-28T11:26:28.269Z,991.10
2023-12-28T11:27:28.251Z,990.82
2023-12-28T11:28:28.228Z,991.50
2023-12-28T11:29:28.216Z,990.98
2023-12-28T11:30:28.316Z,990.92
2023-12-28T11:31:28.292Z,990.96
2023-12-28T11:32:28.227Z,990.70
2023-12-28T11:33:28.258Z,990.62
2023-12-28T11:34:28.286Z,990.68
2023-12-28T11:35:28.173Z,990.79
2023-12-28T11:36:28.227Z,990.89
2023-12-28T11:37:28.172Z,990.97
2023-12-28T11:38:28.168Z,991.01
2023-12-28T11:39:28.207Z,990.79
2023-12-28T11:40:28.151Z,990.57
2023-12-28T11:41:28.153Z,990.81
2023-12-28T11:42:28.147Z,990.68
2023-12-28T11:43:28.125Z,990.82
2023-12-28T11:44:28.112Z,991.12
2023-12-28T11:45:28.149Z,990.57
2023-12-28T11:46:28.099Z,990.81
2023-12-28T11:47:28.153Z,990.96
2023-12-28T11:48:28.300Z,990.76
2023-12-28T11:49:28.140Z,990.64
2023-12-28T11:50:28.073Z,990.77
2023-12-28T11:51:28.088Z,990.79
2023-12-28T11:52:45.731Z,990.86
2023-12-28T11:53:29.084Z,990.65
2023-12-28T11:54:28.087Z,990.82
2023-12-28T11:55:28.064Z,990.41
2023-12-28T11:56:28.066Z,990.71
2023-12-28T11:57:28.069Z,990.76
2023-12-28T11:58:28.038Z,990.62
2023-12-28T11:59:28.014Z,990.27
2023-12-28T12:00:28.228Z,990.89
2023-12-28T12:01:28.064Z,990.72
2023-12-28T12:02:28.066Z,990.54
2023-12-28T12:03:28.175Z,990.38
2023-12-28T12:04:29.057Z,990.86
2023-12-28T12:05:28.031Z,990.47
2023-12-28T12:06:28.181Z,990.58
2023-12-28T12:07:27.983Z,990.69
2023-12-28T12:08:27.963Z,990.78
2023-12-28T12:09:27.974Z,990.24
2023-12-28T12:10:28.667Z,990.31
2023-12-28T12:11:27.952Z,990.34
2023-12-28T12:12:28.025Z,990.39
2023-12-28T12:13:27.925Z,990.36
2023-12-28T12:14:27.968Z,990.31
2023-12-28T12:15:27.953Z,990.20
2023-12-28T12:16:27.912Z,990.22
2023-12-28T12:17:28.100Z,990.22
2023-12-28T12:18:27.944Z,990.35
2023-12-28T12:19:28.023Z,990.57
2023-12-28T12:20:27.879Z,990.27
2023-12-28T12:21:27.943Z,990.23
2023-12-28T12:22:29.734Z,990.25
2023-12-28T12:23:28.873Z,990.28
2023-12-28T12:24:27.881Z,990.35
2023-12-28T12:25:27.868Z,990.31
2023-12-28T12:26:27.842Z,990.44
2023-12-28T12:27:27.854Z,990.32
2023-12-28T12:28:27.821Z,990.39